Time;durP1;ratioP1;P1;durP2;ratioP2;P2;SDS_P1;SDS_P2;PMS_P1;PMS_P2;Temp;Humidity;BMP_temperature;BMP_pressure;BME280_temperature;BME280_humidity;BME280_pressure;Samples;Min_cycle;Max_cycle;Signal;HPM_P1;HPM_P2
2023/04/07 00:02:00;;;;;;;6.72;6.10;;;;;;;7.48;100.00;100892.94;5995667;23;20016;-68
2023/04/07 00:04:26;;;;;;;7.88;7.07;;;;;;;7.49;100.00;100894.63;5994396;23;20552;-67
2023/04/07 00:06:54;;;;;;;6.55;6.00;;;;;;;7.19;100.00;100844.38;5998276;23;20023;-67
2023/04/07 00:09:20;;;;;;;6.22;5.63;;;;;;;7.49;100.00;100889.41;6003340;23;20087;-67
2023/04/07 00:11:47;;;;;;;7.13;5.75;;;;;;;7.51;100.00;100890.22;6004314;23;20018;-67
2023/04/07 00:14:14;;;;;;;6.55;5.93;;;;;;;7.26;100.00;100850.25;5993866;23;20478;-68
2023/04/07 00:16:40;;;;;;;6.90;6.30;;;;;;;7.56;100.00;100897.91;6014026;23;20019;-67
2023/04/07 00:19:07;;;;;;;7.20;6.60;;;;;;;7.54;100.00;100897.94;5988100;23;20039;-67
2023/04/07 00:21:33;;;;;;;12.05;5.65;;;;;;;7.27;100.00;100851.94;5988281;23;20647;-67
2023/04/07 00:23:59;;;;;;;6.18;5.60;;;;;;;7.55;100.00;100907.47;5994078;23;20710;-67
2023/04/07 00:26:30;;;;;;;6.38;5.80;;;;;;;7.47;100.00;100891.22;5992013;23;20003;-67
2023/04/07 00:28:57;;;;;;;9.98;6.70;;;;;;;7.15;100.00;100832.34;6000750;23;20026;-67
2023/04/07 00:31:24;;;;;;;6.93;6.43;;;;;;;7.54;100.00;100902.31;5995094;23;20359;-67
2023/04/07 00:33:51;;;;;;;8.65;5.68;;;;;;;7.56;100.00;100903.97;5999630;23;20027;-67
2023/04/07 00:36:18;;;;;;;5.82;5.18;;;;;;;7.00;100.00;100815.50;5983976;23;20402;-68
2023/04/07 00:38:44;;;;;;;6.97;6.32;;;;;;;7.48;100.00;100898.16;6000301;23;20843;-69
2023/04/07 00:41:11;;;;;;;6.63;5.57;;;;;;;7.52;100.00;100902.38;5983671;23;20830;-68
2023/04/07 00:43:37;;;;;;;7.43;6.63;;;;;;;7.21;100.00;100858.22;5996066;23;20027;-68
2023/04/07 00:46:04;;;;;;;5.60;5.10;;;;;;;7.53;100.00;100896.22;6000420;23;20097;-67
2023/04/07 00:48:30;;;;;;;6.15;5.63;;;;;;;6.72;100.00;100760.84;5968837;23;21454;-67
2023/04/07 00:50:57;;;;;;;6.15;5.70;;;;;;;7.61;100.00;100900.34;5996271;23;20043;-68
2023/04/07 00:53:23;;;;;;;7.72;6.50;;;;;;;7.08;100.00;100810.00;5984910;23;20612;-68
2023/04/07 00:55:50;;;;;;;6.03;5.53;;;;;;;7.36;100.00;100849.00;5999353;23;20027;-70
2023/04/07 00:58:16;;;;;;;11.13;7.38;;;;;;;7.65;100.00;100899.31;5989049;23;20031;-68
2023/04/07 01:00:50;;;;;;;10.07;6.60;;;;;;;7.27;100.00;100833.66;5990346;23;20019;-68
2023/04/07 01:03:29;;;;;;;6.25;5.75;;;;;;;7.64;100.00;100900.19;5994701;23;20053;-68
2023/04/07 01:06:00;;;;;;;6.30;5.60;;;;;;;7.13;100.00;100798.47;5998633;23;20501;-67
2023/04/07 01:08:30;;;;;;;6.63;5.63;;;;;;;7.66;100.00;100890.53;5990720;23;20019;-66
2023/04/07 01:11:38;;;;;;;6.60;6.05;;;;;;;7.57;100.00;100887.38;6006039;23;20027;-65
2023/04/07 01:14:05;;;;;;;6.03;5.55;;;;;;;7.36;100.00;100873.34;5858847;24;20037;-65
2023/04/07 01:16:38;;;;;;;20.23;6.72;;;;;;;7.54;100.00;100887.50;5863508;24;20030;-69
2023/04/07 01:19:15;;;;;;;8.88;6.25;;;;;;;7.59;100.00;100879.47;5924389;23;20594;-66
2023/04/07 01:21:43;;;;;;;7.65;6.93;;;;;;;7.59;100.00;100882.94;6007309;23;20033;-65
2023/04/07 01:24:39;;;;;;;6.78;6.18;;;;;;;7.13;100.00;100797.63;5997687;23;20037;-65
2023/04/07 01:27:32;;;;;;;10.60;7.55;;;;;;;7.53;100.00;100867.50;6003837;23;20668;-65
2023/04/07 01:30:02;;;;;;;7.40;6.80;;;;;;;7.10;100.00;100784.69;5990715;23;20085;-65
2023/04/07 01:32:29;;;;;;;11.77;7.85;;;;;;;7.69;100.00;100887.84;6000313;23;20034;-64
2023/04/07 01:34:58;;;;;;;7.38;6.68;;;;;;;7.72;100.00;100887.72;6004540;23;20093;-66
2023/04/07 01:37:26;;;;;;;13.25;8.10;;;;;;;7.67;100.00;100887.03;5998251;23;20043;-65
2023/04/07 01:39:52;;;;;;;12.82;7.95;;;;;;;7.73;100.00;100887.66;5993627;23;20429;-65
2023/04/07 01:42:20;;;;;;;12.63;8.95;;;;;;;7.30;100.00;100810.91;5986627;23;20024;-65
2023/04/07 01:44:47;;;;;;;13.23;7.97;;;;;;;7.77;100.00;100886.63;6002154;23;20039;-65
2023/04/07 01:47:15;;;;;;;8.68;7.28;;;;;;;7.74;100.00;100876.31;5997736;23;20033;-68
2023/04/07 01:49:43;;;;;;;11.75;8.85;;;;;;;7.74;100.00;100878.09;5994043;23;20039;-67
2023/04/07 01:52:10;;;;;;;16.73;9.13;;;;;;;7.78;100.00;100884.91;5992080;23;20019;-67
2023/04/07 01:54:36;;;;;;;11.18;8.50;;;;;;;7.42;100.00;100822.66;5996000;23;21342;-67
2023/04/07 01:57:03;;;;;;;9.38;7.03;;;;;;;7.87;100.00;100891.53;5987861;23;21058;-67
2023/04/07 01:59:29;;;;;;;8.70;7.72;;;;;;;7.87;100.00;100889.75;5959878;23;20098;-68
2023/04/07 02:01:56;;;;;;;10.15;8.05;;;;;;;7.37;100.00;100807.16;5990989;23;20025;-66
2023/04/07 02:04:37;;;;;;;14.07;9.82;;;;;;;7.84;100.00;100889.00;5975422;23;20031;-67
2023/04/07 02:07:10;;;;;;;6.90;6.13;;;;;;;7.85;100.00;100881.13;5986138;23;20406;-67
2023/04/07 02:09:39;;;;;;;9.70;8.45;;;;;;;7.86;100.00;100890.69;5973384;23;20023;-67
2023/04/07 02:12:08;;;;;;;13.32;7.13;;;;;;;7.80;100.00;100880.47;6003481;23;20015;-68
2023/04/07 02:14:35;;;;;;;10.32;8.43;;;;;;;7.65;100.00;100849.69;5987348;23;20089;-67
2023/04/07 02:17:03;;;;;;;9.05;7.60;;;;;;;7.87;100.00;100926.34;6019302;23;20027;-67
2023/04/07 02:19:29;;;;;;;7.82;6.82;;;;;;;7.86;100.00;100885.44;5991304;23;20145;-67
2023/04/07 02:21:58;;;;;;;10.27;8.20;;;;;;;7.92;100.00;100887.00;6003759;23;20087;-66
2023/04/07 02:24:24;;;;;;;12.73;8.23;;;;;;;7.97;100.00;100885.03;5996462;23;20070;-67
2023/04/07 02:26:50;;;;;;;14.60;9.18;;;;;;;7.87;100.00;100881.06;6018748;23;20075;-67
2023/04/07 02:29:17;;;;;;;20.65;10.75;;;;;;;7.54;100.00;100823.97;5993839;23;20066;-66
2023/04/07 02:31:43;;;;;;;11.52;10.25;;;;;;;7.98;100.00;100894.59;6000215;23;20015;-67
2023/04/07 02:34:10;;;;;;;7.32;6.63;;;;;;;7.94;100.00;100891.22;5993256;23;20066;-67
2023/04/07 02:36:36;;;;;;;9.70;8.15;;;;;;;7.97;100.00;100891.09;5997112;23;20027;-67
2023/04/07 02:39:03;;;;;;;15.75;9.65;;;;;;;7.92;100.00;100887.00;5998481;23;20031;-67
2023/04/07 02:41:29;;;;;;;8.68;7.70;;;;;;;7.94;100.00;100874.72;5985331;23;20671;-67
2023/04/07 02:43:56;;;;;;;17.23;10.63;;;;;;;6.98;100.00;100715.53;6018406;23;20255;-67
2023/04/07 02:46:23;;;;;;;16.08;8.07;;;;;;;8.04;100.00;100886.50;5985268;23;20037;-67
2023/04/07 02:48:50;;;;;;;8.75;7.03;;;;;;;7.81;100.00;100853.41;5997662;23;20083;-67
2023/04/07 02:51:16;;;;;;;11.50;8.25;;;;;;;8.04;100.00;100899.59;5988344;23;20035;-67
2023/04/07 02:53:43;;;;;;;14.95;9.45;;;;;;;8.03;100.00;100899.63;6002197;23;20027;-67
2023/04/07 02:56:09;;;;;;;11.35;9.30;;;;;;;8.04;100.00;100898.72;5986885;23;20107;-67
2023/04/07 02:58:36;;;;;;;11.70;9.30;;;;;;;8.00;100.00;100895.38;6001082;23;20034;-67
2023/04/07 03:01:02;;;;;;;8.98;8.18;;;;;;;8.04;100.00;100901.31;6000809;23;20029;-68
2023/04/07 03:03:29;;;;;;;16.17;8.52;;;;;;;8.16;100.00;100898.25;5996199;23;20012;-67
2023/04/07 03:05:56;;;;;;;10.93;8.43;;;;;;;8.10;100.00;100908.94;5988336;23;20057;-66
2023/04/07 03:08:22;;;;;;;10.85;8.75;;;;;;;8.00;100.00;100895.38;5994607;23;20034;-66
2023/04/07 03:10:49;;;;;;;21.38;9.27;;;;;;;8.15;100.00;100904.38;5996320;23;20026;-67
2023/04/07 03:13:18;;;;;;;13.27;8.15;;;;;;;8.16;100.00;100906.09;6020903;23;20670;-66
2023/04/07 03:15:44;;;;;;;14.48;10.02;;;;;;;8.18;100.00;100896.44;5992473;23;20029;-66
2023/04/07 03:18:11;;;;;;;9.18;7.43;;;;;;;8.11;100.00;100897.56;5893062;23;20027;-68
2023/04/07 03:20:40;;;;;;;10.30;8.93;;;;;;;8.13;100.00;100900.97;5990556;23;20028;-68
2023/04/07 03:23:07;;;;;;;10.30;7.20;;;;;;;8.12;100.00;100894.06;5982555;23;20099;-68
2023/04/07 03:25:33;;;;;;;13.23;8.95;;;;;;;8.12;100.00;100904.53;5999925;23;20092;-68
2023/04/07 03:28:00;;;;;;;12.60;7.93;;;;;;;8.10;100.00;100906.34;5995885;23;20031;-68
2023/04/07 03:30:26;;;;;;;13.35;9.13;;;;;;;7.98;100.00;100886.75;5985184;23;20024;-70
2023/04/07 03:32:53;;;;;;;9.38;8.38;;;;;;;8.13;100.00;100899.22;5999694;23;20122;-69
2023/04/07 03:35:19;;;;;;;13.95;9.55;;;;;;;8.07;100.00;100903.84;5986161;23;20019;-68
2023/04/07 03:37:45;;;;;;;11.98;8.88;;;;;;;7.98;100.00;100907.66;5974635;23;20165;-68
2023/04/07 03:40:12;;;;;;;14.48;8.93;;;;;;;7.98;100.00;100907.66;5997378;23;20358;-68
2023/04/07 03:42:38;;;;;;;16.33;8.75;;;;;;;7.86;100.00;100890.69;5990033;23;20030;-68
2023/04/07 03:45:05;;;;;;;11.00;9.85;;;;;;;7.90;100.00;100925.38;5993280;23;20032;-67
2023/04/07 03:47:31;;;;;;;11.27;7.72;;;;;;;7.32;100.00;100789.97;5991553;23;20038;-66
2023/04/07 03:49:58;;;;;;;15.38;8.85;;;;;;;7.73;100.00;100869.38;5996534;23;20038;-66
2023/04/07 03:52:24;;;;;;;12.60;9.57;;;;;;;7.97;100.00;100912.00;5997154;23;20019;-69
2023/04/07 03:54:50;;;;;;;11.10;7.47;;;;;;;7.90;100.00;100907.94;5990174;23;20497;-66
2023/04/07 03:57:17;;;;;;;10.32;8.30;;;;;;;7.97;100.00;100911.16;5992246;23;20082;-71
2023/04/07 03:59:43;;;;;;;10.13;8.23;;;;;;;7.94;100.00;100912.16;6016645;23;20067;-67
2023/04/07 04:02:10;;;;;;;15.85;9.23;;;;;;;7.74;100.00;100884.16;5987865;23;20027;-69
2023/04/07 04:04:36;;;;;;;8.10;7.25;;;;;;;7.96;100.00;100915.56;6001008;23;20570;-67
2023/04/07 04:07:03;;;;;;;9.48;7.78;;;;;;;7.95;100.00;100911.22;5985818;23;20099;-69
2023/04/07 04:09:29;;;;;;;10.55;8.60;;;;;;;7.88;100.00;100914.16;5978109;23;20110;-67
2023/04/07 04:11:56;;;;;;;9.65;7.13;;;;;;;7.90;100.00;100928.00;5993384;23;20646;-67
2023/04/07 04:14:22;;;;;;;11.77;9.02;;;;;;;7.90;100.00;100926.22;5987059;23;20079;-67
2023/04/07 04:16:49;;;;;;;14.88;8.07;;;;;;;6.94;100.00;100760.91;6002687;23;20051;-67
2023/04/07 04:19:15;;;;;;;8.98;7.68;;;;;;;7.36;100.00;100862.91;5979381;23;20636;-67
2023/04/07 04:21:42;;;;;;;12.27;8.05;;;;;;;7.92;100.00;100927.03;6004351;23;20023;-68
2023/04/07 04:24:09;;;;;;;9.00;6.25;;;;;;;7.77;100.00;100925.81;5991894;23;20038;-66
2023/04/07 04:26:35;;;;;;;7.97;7.22;;;;;;;7.76;100.00;100934.59;5998105;23;20398;-65
2023/04/07 04:29:02;;;;;;;10.57;7.60;;;;;;;7.78;100.00;100932.75;5995341;23;20359;-65
2023/04/07 04:31:28;;;;;;;10.93;8.75;;;;;;;7.75;100.00;100935.47;5976507;23;20804;-65
2023/04/07 04:33:55;;;;;;;14.35;8.25;;;;;;;7.75;100.00;100940.69;5990641;23;20050;-66
2023/04/07 04:36:21;;;;;;;12.75;7.32;;;;;;;7.73;100.00;100939.91;6000282;23;20019;-66
2023/04/07 04:38:48;;;;;;;14.25;8.77;;;;;;;7.73;100.00;100939.06;5990318;23;20655;-65
2023/04/07 04:41:14;;;;;;;10.32;9.23;;;;;;;7.74;100.00;100943.38;5996219;23;20052;-66
2023/04/07 04:43:43;;;;;;;10.98;7.00;;;;;;;7.73;100.00;100939.91;5988147;23;20047;-66
2023/04/07 04:46:10;;;;;;;11.18;7.80;;;;;;;7.78;100.00;100952.81;5997846;23;20019;-66
2023/04/07 04:48:37;;;;;;;9.50;6.93;;;;;;;7.73;100.00;100959.97;6002152;23;20674;-65
2023/04/07 04:51:03;;;;;;;7.68;6.82;;;;;;;7.73;100.00;100955.56;5994955;23;20047;-66
2023/04/07 04:53:30;;;;;;;8.20;7.40;;;;;;;7.75;100.00;100958.97;5980568;23;20051;-69
2023/04/07 04:55:56;;;;;;;11.80;7.50;;;;;;;7.80;100.00;100951.00;5996248;23;20019;-65
2023/04/07 04:58:23;;;;;;;12.65;7.55;;;;;;;7.78;100.00;100960.66;5966410;23;20098;-65
2023/04/07 05:00:56;;;;;;;8.30;6.47;;;;;;;7.77;100.00;100967.63;5980114;23;20422;-68
2023/04/07 05:03:26;;;;;;;14.77;7.25;;;;;;;7.39;100.00;100898.50;5997688;23;20023;-68
2023/04/07 05:05:55;;;;;;;7.43;6.47;;;;;;;7.71;100.00;100975.69;5989212;23;20038;-68
2023/04/07 05:08:21;;;;;;;7.22;6.47;;;;;;;7.57;100.00;100954.44;5987783;23;20011;-68
2023/04/07 05:10:48;;;;;;;10.98;7.70;;;;;;;7.76;100.00;100981.59;5995485;23;20026;-69
2023/04/07 05:13:15;;;;;;;7.18;6.40;;;;;;;7.44;100.00;100921.81;5994562;23;20127;-68
2023/04/07 05:15:41;;;;;;;8.75;7.38;;;;;;;7.73;100.00;100986.09;6001463;23;20072;-69
2023/04/07 05:18:08;;;;;;;10.00;6.38;;;;;;;7.71;100.00;100982.69;5990647;23;20019;-69
2023/04/07 05:20:34;;;;;;;9.85;6.55;;;;;;;7.65;100.00;100991.56;5992326;23;20022;-68
2023/04/07 05:23:00;;;;;;;6.43;5.55;;;;;;;7.66;100.00;100995.03;6014971;23;20114;-68
2023/04/07 05:25:27;;;;;;;8.52;6.13;;;;;;;7.52;100.00;100977.25;5985950;23;20044;-68
2023/04/07 05:27:53;;;;;;;9.02;6.15;;;;;;;7.62;100.00;100988.22;5998820;23;20548;-69
2023/04/07 05:30:20;;;;;;;7.07;6.43;;;;;;;7.68;100.00;101004.53;5995516;23;21083;-68
2023/04/07 05:32:46;;;;;;;7.13;5.88;;;;;;;7.23;100.00;100939.94;5993567;23;20038;-68
2023/04/07 05:35:13;;;;;;;7.28;6.57;;;;;;;7.41;100.00;100956.72;5987493;23;20767;-68
2023/04/07 05:37:40;;;;;;;6.45;5.85;;;;;;;7.66;100.00;101008.97;5989458;23;20113;-69
2023/04/07 05:40:07;;;;;;;5.60;5.18;;;;;;;7.65;100.00;101009.84;5997253;23;20059;-69
2023/04/07 05:42:34;;;;;;;6.07;5.50;;;;;;;7.39;100.00;100977.66;5991121;23;20090;-69
2023/04/07 05:45:00;;;;;;;12.82;6.68;;;;;;;7.62;100.00;101015.22;5999843;23;20054;-68
2023/04/07 05:47:26;;;;;;;6.60;6.03;;;;;;;7.52;100.00;101014.66;5989884;23;20170;-69
2023/04/07 05:49:53;;;;;;;7.90;6.47;;;;;;;7.51;100.00;100999.88;5989697;23;21568;-70
2023/04/07 05:52:19;;;;;;;8.68;6.85;;;;;;;7.23;100.00;100968.66;5998446;23;20031;-69
2023/04/07 05:54:46;;;;;;;7.47;6.35;;;;;;;7.33;100.00;100961.38;6001964;23;20090;-69
2023/04/07 05:57:13;;;;;;;10.25;5.60;;;;;;;7.30;100.00;100977.16;5990859;23;20090;-69
2023/04/07 05:59:39;;;;;;;6.10;5.57;;;;;;;7.58;100.00;101021.44;5967704;23;20035;-68
2023/04/07 06:02:06;;;;;;;5.57;4.68;;;;;;;7.62;100.00;101025.66;6003038;23;20053;-68
2023/04/07 06:04:34;;;;;;;5.60;5.07;;;;;;;6.51;100.00;100857.13;5996473;23;20100;-68
2023/04/07 06:07:01;;;;;;;6.05;5.40;;;;;;;7.23;100.00;100986.94;5975945;23;20070;-69
2023/04/07 06:09:28;;;;;;;5.22;4.93;;;;;;;7.60;100.00;101032.69;6000832;23;20063;-68
2023/04/07 06:11:55;;;;;;;6.63;5.82;;;;;;;7.48;100.00;101040.94;5994032;23;20098;-68
2023/04/07 06:14:22;;;;;;;7.18;5.63;;;;;;;7.30;100.00;100995.44;6001274;23;20049;-68
2023/04/07 06:16:48;;;;;;;5.80;5.43;;;;;;;7.42;100.00;101021.13;5990830;23;20080;-69
2023/04/07 06:19:15;;;;;;;5.85;5.25;;;;;;;7.60;100.00;101048.38;5991032;23;20036;-69
2023/04/07 06:21:41;;;;;;;6.88;5.03;;;;;;;7.35;100.00;101043.94;5998324;23;20015;-69
2023/04/07 06:24:08;;;;;;;6.10;5.28;;;;;;;6.30;100.00;100856.06;5992088;23;20107;-68
2023/04/07 06:26:35;;;;;;;6.68;5.53;;;;;;;7.55;100.00;101043.28;5997652;23;20010;-69
2023/04/07 06:29:01;;;;;;;5.75;5.35;;;;;;;7.59;100.00;101051.88;6006909;23;20038;-69
2023/04/07 06:31:27;;;;;;;5.20;4.80;;;;;;;7.56;100.00;101062.44;5999449;23;20023;-68
2023/04/07 06:33:54;;;;;;;6.28;5.38;;;;;;;7.62;100.00;101066.56;5998890;23;20086;-68
2023/04/07 06:36:22;;;;;;;6.30;5.82;;;;;;;7.66;100.00;101061.22;5988994;23;20678;-68
2023/04/07 06:38:48;;;;;;;5.22;4.53;;;;;;;7.68;100.00;101066.41;5998739;23;20154;-68
2023/04/07 06:41:18;;;;;;;5.22;4.82;;;;;;;7.26;100.00;100978.16;5993016;23;20057;-70
2023/04/07 06:43:50;;;;;;;5.20;4.80;;;;;;;7.71;100.00;101069.72;6003322;23;20090;-68
2023/04/07 06:46:17;;;;;;;7.30;6.60;;;;;;;7.73;100.00;101061.84;5992518;23;20041;-69
2023/04/07 06:48:44;;;;;;;4.15;3.95;;;;;;;7.83;100.00;101063.22;6000266;23;20026;-69
2023/04/07 06:51:11;;;;;;;6.88;5.35;;;;;;;7.65;100.00;101069.94;5989085;23;20082;-68
2023/04/07 06:53:37;;;;;;;6.82;5.18;;;;;;;7.71;100.00;101068.88;5994025;23;20038;-69
2023/04/07 06:56:10;;;;;;;8.05;6.35;;;;;;;6.96;100.00;100939.97;5987385;23;20086;-70
2023/04/07 06:58:37;;;;;;;5.85;5.22;;;;;;;7.48;100.00;101046.19;5999514;23;20877;-70
2023/04/07 07:01:05;;;;;;;7.28;4.82;;;;;;;7.65;100.00;101077.78;6000446;23;20043;-69
2023/04/07 07:03:32;;;;;;;5.75;5.35;;;;;;;7.90;100.00;101076.97;5962289;23;20050;-68
2023/04/07 07:05:59;;;;;;;5.78;5.28;;;;;;;7.88;100.00;101069.16;6000299;23;21076;-68
2023/04/07 07:08:27;;;;;;;6.03;5.43;;;;;;;7.80;100.00;101052.91;5984328;23;20000;-68
2023/04/07 07:10:54;;;;;;;8.80;6.72;;;;;;;7.62;100.00;101019.56;5991191;23;20134;-68
2023/04/07 07:13:23;;;;;;;6.35;4.80;;;;;;;7.97;100.00;101087.09;5995810;23;20023;-69
2023/04/07 07:15:50;;;;;;;5.28;4.88;;;;;;;7.95;100.00;101096.75;5998297;23;20027;-68
2023/04/07 07:18:18;;;;;;;5.13;4.70;;;;;;;7.94;100.00;101084.63;5980524;23;20685;-68
2023/04/07 07:20:44;;;;;;;4.93;4.40;;;;;;;7.73;100.00;101023.50;6004926;23;20031;-70
2023/04/07 07:23:11;;;;;;;8.35;6.00;;;;;;;8.01;100.00;101060.88;6001694;23;20104;-68
2023/04/07 07:25:38;;;;;;;5.07;4.65;;;;;;;8.00;100.00;101075.72;6001061;23;20148;-69
2023/04/07 07:28:04;;;;;;;6.05;5.45;;;;;;;7.89;100.00;101076.06;5991863;23;20027;-69
2023/04/07 07:30:31;;;;;;;5.68;5.25;;;;;;;7.93;100.00;101090.75;5997820;23;20536;-68
2023/04/07 07:32:57;;;;;;;6.00;5.45;;;;;;;7.96;100.00;101098.50;5999694;23;20011;-69
2023/04/07 07:35:24;;;;;;;5.75;5.30;;;;;;;8.08;100.00;101098.94;5998694;23;20039;-69
2023/04/07 07:37:51;;;;;;;5.88;5.35;;;;;;;7.89;100.00;101070.00;6000920;23;20072;-68
2023/04/07 07:40:17;;;;;;;4.90;4.60;;;;;;;8.01;100.00;101076.56;5985243;23;20028;-68
2023/04/07 07:42:45;;;;;;;6.47;5.88;;;;;;;8.27;100.00;101112.22;5998789;23;20027;-68
2023/04/07 07:45:12;;;;;;;5.18;4.78;;;;;;;8.08;100.00;101109.41;5994985;23;20038;-68
2023/04/07 07:47:40;;;;;;;6.93;5.15;;;;;;;8.13;100.00;101105.72;5994678;23;20026;-68
2023/04/07 07:50:06;;;;;;;6.50;5.20;;;;;;;7.83;100.00;101059.78;5986431;23;20028;-68
2023/04/07 07:52:33;;;;;;;5.45;5.13;;;;;;;8.26;100.00;101115.75;5993025;23;20655;-68
2023/04/07 07:55:02;;;;;;;5.68;5.13;;;;;;;7.85;100.00;101045.72;5974282;23;20605;-67
2023/04/07 07:57:30;;;;;;;8.18;5.68;;;;;;;8.33;100.00;101086.69;5989990;23;20668;-68
2023/04/07 07:59:56;;;;;;;6.13;5.63;;;;;;;8.11;100.00;101052.66;6004455;23;20090;-68
2023/04/07 08:02:28;;;;;;;14.20;6.13;;;;;;;8.14;100.00;101060.38;5975316;23;20035;-68
2023/04/07 08:04:56;;;;;;;8.63;5.78;;;;;;;8.47;100.00;101114.16;5982805;23;20024;-68
2023/04/07 08:07:22;;;;;;;8.82;5.53;;;;;;;8.59;100.00;101132.00;5986575;23;20024;-68
2023/04/07 08:09:49;;;;;;;6.15;5.55;;;;;;;8.79;100.00;101126.03;5998193;23;20084;-68
2023/04/07 08:12:15;;;;;;;9.65;6.22;;;;;;;8.62;100.00;101124.06;5991562;23;20086;-67
2023/04/07 08:14:42;;;;;;;5.40;4.85;;;;;;;8.73;100.00;101132.34;5998980;23;20021;-70
2023/04/07 08:17:08;;;;;;;5.70;5.20;;;;;;;8.56;100.00;101137.38;5991184;23;20098;-70
2023/04/07 08:19:35;;;;;;;9.13;6.25;;;;;;;8.68;100.00;101142.16;5992664;23;20033;-69
2023/04/07 08:22:01;;;;;;;7.63;5.47;;;;;;;8.63;100.00;101145.84;5997895;23;20031;-69
2023/04/07 08:24:30;;;;;;;5.85;5.28;;;;;;;8.60;100.00;101136.34;5991550;23;20035;-68
2023/04/07 08:26:57;;;;;;;12.70;6.68;;;;;;;8.84;100.00;101142.44;5998624;23;20030;-69
2023/04/07 08:29:23;;;;;;;6.28;5.78;;;;;;;8.52;100.00;101096.50;5995369;23;20345;-68
2023/04/07 08:31:49;;;;;;;5.82;5.15;;;;;;;8.81;100.00;101139.06;6000269;23;20030;-70
2023/04/07 08:34:17;;;;;;;6.57;5.70;;;;;;;8.22;100.00;101052.28;5986136;23;20616;-69
2023/04/07 08:36:44;;;;;;;6.93;6.30;;;;;;;8.70;100.00;101121.13;5994832;23;20026;-70
2023/04/07 08:39:10;;;;;;;6.60;5.75;;;;;;;8.41;100.00;101082.97;5979964;23;20035;-68
2023/04/07 08:41:38;;;;;;;6.60;5.95;;;;;;;9.15;100.00;101151.72;5982313;23;20010;-68
2023/04/07 08:44:06;;;;;;;5.80;5.38;;;;;;;8.79;100.00;101120.81;5992755;23;20035;-69
2023/04/07 08:46:33;;;;;;;7.95;5.15;;;;;;;8.64;100.00;101093.47;5986903;23;20074;-68
2023/04/07 08:49:00;;;;;;;6.53;5.55;;;;;;;8.91;100.00;101140.44;5986489;23;20577;-68
2023/04/07 08:51:30;;;;;;;5.65;5.18;;;;;;;8.92;100.00;101178.75;5996315;23;20099;-70
2023/04/07 08:54:09;;;;;;;5.35;4.95;;;;;;;8.81;100.00;101124.22;5973224;23;20634;-70
2023/04/07 08:56:41;;;;;;;6.50;5.93;;;;;;;8.64;100.00;101147.53;5986043;23;20022;-70
2023/04/07 08:59:13;;;;;;;6.15;5.55;;;;;;;8.73;100.00;101174.22;5976713;23;20425;-70
2023/04/07 09:01:40;;;;;;;6.82;6.13;;;;;;;8.73;100.00;101166.38;5988857;23;20011;-68
2023/04/07 09:04:09;;;;;;;5.60;5.20;;;;;;;8.60;100.00;101162.50;5994826;23;20038;-70
2023/04/07 09:06:36;;;;;;;5.70;5.30;;;;;;;8.75;100.00;101182.88;5987326;23;20019;-69
2023/04/07 09:09:06;;;;;;;6.43;5.82;;;;;;;8.57;100.00;101147.75;5998455;23;20027;-69
2023/04/07 09:11:37;;;;;;;6.20;5.60;;;;;;;8.72;100.00;101137.63;5986716;23;20019;-69
2023/04/07 09:14:04;;;;;;;6.57;5.88;;;;;;;8.92;100.00;101177.03;5988973;23;20885;-68
2023/04/07 09:16:31;;;;;;;7.78;6.15;;;;;;;8.98;100.00;101189.03;5989386;23;20015;-67
2023/04/07 09:18:58;;;;;;;8.85;6.45;;;;;;;8.73;100.00;101157.66;5962314;23;20486;-71
2023/04/07 09:21:26;;;;;;;6.55;5.32;;;;;;;9.02;100.00;101184.50;5968804;23;20055;-70
2023/04/07 09:23:52;;;;;;;6.10;5.35;;;;;;;8.89;100.00;101184.13;6005842;23;20100;-69
2023/04/07 09:26:27;;;;;;;8.55;5.50;;;;;;;8.89;100.00;101174.50;5997739;23;20031;-69
2023/04/07 09:28:58;;;;;;;6.00;5.40;;;;;;;8.37;100.00;101095.31;6003618;23;20415;-67
2023/04/07 09:31:45;;;;;;;8.80;6.60;;;;;;;8.72;100.00;101187.34;5991213;23;20015;-67
2023/04/07 09:34:34;;;;;;;6.10;5.53;;;;;;;8.67;100.00;101190.16;6004452;23;20031;-67
2023/04/07 09:37:01;;;;;;;7.55;5.93;;;;;;;8.57;100.00;101155.59;5992299;23;20050;-68
2023/04/07 09:39:28;;;;;;;5.63;5.13;;;;;;;8.63;100.00;101183.31;5987022;23;20034;-68
2023/04/07 09:41:56;;;;;;;13.80;5.70;;;;;;;8.77;100.00;101191.50;5991738;23;20488;-68
2023/04/07 09:44:24;;;;;;;8.68;6.05;;;;;;;8.73;100.00;101192.53;5990616;23;20034;-67
2023/04/07 09:46:57;;;;;;;7.18;5.65;;;;;;;8.72;100.00;101193.47;6003123;23;20176;-67
2023/04/07 09:49:25;;;;;;;7.03;6.45;;;;;;;8.71;100.00;101189.13;5995387;23;20367;-67
2023/04/07 09:52:06;;;;;;;5.78;5.07;;;;;;;8.50;100.00;101189.88;5997735;23;20117;-67
2023/04/07 09:54:38;;;;;;;6.28;5.72;;;;;;;8.58;100.00;101200.97;5997574;23;20106;-68
2023/04/07 09:57:06;;;;;;;11.00;7.83;;;;;;;8.70;100.00;101203.13;5992406;23;20023;-67
2023/04/07 09:59:35;;;;;;;8.23;6.75;;;;;;;8.77;100.00;101194.13;5998507;23;20659;-68
2023/04/07 10:02:02;;;;;;;6.05;5.22;;;;;;;9.00;100.00;101205.53;5997057;23;20069;-67
2023/04/07 10:04:29;;;;;;;8.65;6.47;;;;;;;8.89;100.00;101194.59;6001567;23;20007;-69
2023/04/07 10:06:57;;;;;;;6.75;6.25;;;;;;;8.50;100.00;101137.56;5989314;23;20034;-67
2023/04/07 10:09:26;;;;;;;6.82;5.70;;;;;;;9.04;100.00;101185.31;5993675;23;20745;-68
2023/04/07 10:11:55;;;;;;;6.57;5.13;;;;;;;9.11;100.00;101198.09;6002764;23;20233;-68
2023/04/07 10:14:26;;;;;;;8.90;6.20;;;;;;;9.09;100.00;101186.84;5996892;23;20589;-67
2023/04/07 10:16:53;;;;;;;7.57;6.35;;;;;;;9.36;100.00;101195.41;5993911;23;20065;-67
2023/04/07 10:19:21;;;;;;;5.88;5.38;;;;;;;9.46;100.00;101192.41;6000928;23;20410;-67
2023/04/07 10:21:50;;;;;;;9.70;5.60;;;;;;;9.22;100.00;101131.38;5998820;23;20031;-68
2023/04/07 10:24:36;;;;;;;6.88;5.78;;;;;;;9.51;100.00;101191.31;5986927;23;20056;-68
2023/04/07 10:27:08;;;;;;;8.95;5.88;;;;;;;9.53;100.00;101199.97;5996626;23;20034;-68
2023/04/07 10:29:38;;;;;;;7.72;6.22;;;;;;;9.93;100.00;101194.88;5987648;23;20089;-68
2023/04/07 10:32:05;;;;;;;6.05;5.22;;;;;;;9.51;100.00;101124.97;5998088;23;20675;-68
2023/04/07 10:34:56;;;;;;;6.00;5.53;;;;;;;9.74;100.00;101186.91;5995233;23;20047;-68
2023/04/07 10:37:24;;;;;;;6.25;5.78;;;;;;;8.51;100.00;101011.13;5989627;23;20086;-68
2023/04/07 10:40:20;;;;;;;9.50;6.10;;;;;;;9.68;100.00;101187.16;6004593;23;20375;-68
2023/04/07 10:42:47;;;;;;;7.97;6.82;;;;;;;8.26;100.00;101000.69;5992628;23;20038;-68
2023/04/07 10:45:13;;;;;;;13.70;6.57;;;;;;;9.48;100.00;101194.06;5988991;23;20030;-70
2023/04/07 10:48:02;;;;;;;5.80;5.30;;;;;;;9.79;100.00;101198.06;5978356;23;20023;-68
2023/04/07 10:50:28;;;;;;;6.45;5.85;;;;;;;10.02;100.00;101196.25;6000253;23;20121;-71
2023/04/07 10:53:08;;;;;;;6.07;5.03;;;;;;;10.23;100.00;101199.75;5994787;23;20011;-70
2023/04/07 10:55:45;;;;;;;6.45;5.90;;;;;;;9.99;100.00;101194.63;6008176;23;20056;-68
2023/04/07 10:58:24;;;;;;;5.60;5.13;;;;;;;9.73;100.00;101186.06;5993435;23;20023;-69
2023/04/07 11:01:03;;;;;;;19.58;6.30;;;;;;;9.73;100.00;101190.47;5984728;23;20023;-68
2023/04/07 11:03:32;;;;;;;7.95;6.18;;;;;;;9.23;100.00;101102.50;6000325;23;20648;-70
2023/04/07 11:06:04;;;;;;;5.85;5.35;;;;;;;9.76;100.00;101198.19;5994170;23;20510;-68
2023/04/07 11:08:32;;;;;;;7.43;6.15;;;;;;;9.35;100.00;101135.22;6003132;23;20026;-69
2023/04/07 11:10:59;;;;;;;6.53;5.78;;;;;;;9.25;100.00;101128.66;5999048;23;20638;-67
2023/04/07 11:13:26;;;;;;;5.95;5.45;;;;;;;9.52;100.00;101185.19;6000579;23;20461;-68
2023/04/07 11:15:52;;;;;;;19.60;6.50;;;;;;;9.10;100.00;101141.44;5997560;23;20031;-68
2023/04/07 11:18:22;;;;;;;9.93;7.07;;;;;;;9.46;100.00;101195.03;5993336;23;20086;-68
2023/04/07 11:20:54;;;;;;;8.25;5.97;;;;;;;9.70;100.00;101196.69;6001159;23;21366;-69
2023/04/07 11:23:25;;;;;;;9.27;5.80;;;;;;;9.68;100.00;101195.03;5990647;23;20375;-68
2023/04/07 11:26:02;;;;;;;6.15;5.50;;;;;;;9.59;100.00;101146.47;6001960;23;20439;-68
2023/04/07 11:28:29;;;;;;;6.03;5.20;;;;;;;10.29;100.00;101181.97;5990669;23;22397;-68